sensor_id;sensor_type;location;lat;lon;timestamp;temperature;humidity
14283;DHT22;7225;59.282;18.344;2023-03-23T00:01:49;7.50;99.90
14283;DHT22;7225;59.282;18.344;2023-03-23T00:04:16;7.50;99.90
14283;DHT22;7225;59.282;18.344;2023-03-23T00:06:42;7.50;99.90
14283;DHT22;7225;59.282;18.344;2023-03-23T00:09:12;7.50;99.90
14283;DHT22;7225;59.282;18.344;2023-03-23T00:11:38;7.60;99.90
14283;DHT22;7225;59.282;18.344;2023-03-23T00:14:08;7.50;99.90
14283;DHT22;7225;59.282;18.344;2023-03-23T00:16:40;7.50;99.90
14283;DHT22;7225;59.282;18.344;2023-03-23T00:19:09;7.40;99.90
14283;DHT22;7225;59.282;18.344;2023-03-23T00:21:39;7.40;99.90
14283;DHT22;7225;59.282;18.344;2023-03-23T00:24:18;7.40;99.90
14283;DHT22;7225;59.282;18.344;2023-03-23T00:26:47;7.40;99.90
14283;DHT22;7225;59.282;18.344;2023-03-23T00:29:19;7.40;99.90
14283;DHT22;7225;59.282;18.344;2023-03-23T00:31:47;7.40;99.90
14283;DHT22;7225;59.282;18.344;2023-03-23T00:34:19;7.40;99.90
14283;DHT22;7225;59.282;18.344;2023-03-23T00:36:47;7.30;99.90
14283;DHT22;7225;59.282;18.344;2023-03-23T00:39:13;7.40;99.90
14283;DHT22;7225;59.282;18.344;2023-03-23T00:41:42;7.30;99.90
14283;DHT22;7225;59.282;18.344;2023-03-23T00:44:08;7.30;99.90
14283;DHT22;7225;59.282;18.344;2023-03-23T00:46:34;7.30;99.90
14283;DHT22;7225;59.282;18.344;2023-03-23T00:49:00;7.30;99.90
14283;DHT22;7225;59.282;18.344;2023-03-23T00:51:26;7.30;99.90
14283;DHT22;7225;59.282;18.344;2023-03-23T00:53:51;7.30;99.90
14283;DHT22;7225;59.282;18.344;2023-03-23T00:56:18;7.30;99.90
14283;DHT22;7225;59.282;18.344;2023-03-23T00:58:44;7.30;99.90
14283;DHT22;7225;59.282;18.344;2023-03-23T01:01:10;7.20;99.90
14283;DHT22;7225;59.282;18.344;2023-03-23T01:03:36;7.20;99.90
14283;DHT22;7225;59.282;18.344;2023-03-23T01:06:10;7.20;99.90
14283;DHT22;7225;59.282;18.344;2023-03-23T01:08:42;7.20;99.90
14283;DHT22;7225;59.282;18.344;2023-03-23T01:11:15;7.20;99.90
14283;DHT22;7225;59.282;18.344;2023-03-23T01:13:42;7.10;99.90
14283;DHT22;7225;59.282;18.344;2023-03-23T01:16:10;7.10;99.90
14283;DHT22;7225;59.282;18.344;2023-03-23T01:18:37;7.10;99.90
14283;DHT22;7225;59.282;18.344;2023-03-23T01:21:05;7.10;99.90
14283;DHT22;7225;59.282;18.344;2023-03-23T01:23:33;7.10;99.90
14283;DHT22;7225;59.282;18.344;2023-03-23T01:26:04;7.10;99.90
14283;DHT22;7225;59.282;18.344;2023-03-23T01:28:30;7.00;99.90
14283;DHT22;7225;59.282;18.344;2023-03-23T01:31:01;7.00;99.90
14283;DHT22;7225;59.282;18.344;2023-03-23T01:33:28;7.00;99.90
14283;DHT22;7225;59.282;18.344;2023-03-23T01:35:54;7.00;99.90
14283;DHT22;7225;59.282;18.344;2023-03-23T01:38:20;6.90;99.90
14283;DHT22;7225;59.282;18.344;2023-03-23T01:40:47;6.90;99.90
14283;DHT22;7225;59.282;18.344;2023-03-23T01:43:14;6.90;99.90
14283;DHT22;7225;59.282;18.344;2023-03-23T01:45:41;6.90;99.90
14283;DHT22;7225;59.282;18.344;2023-03-23T01:48:27;6.80;99.90
14283;DHT22;7225;59.282;18.344;2023-03-23T01:51:01;6.80;99.90
14283;DHT22;7225;59.282;18.344;2023-03-23T01:53:32;6.80;99.90
14283;DHT22;7225;59.282;18.344;2023-03-23T01:56:01;6.70;99.90
14283;DHT22;7225;59.282;18.344;2023-03-23T01:58:30;6.70;99.90
14283;DHT22;7225;59.282;18.344;2023-03-23T02:00:58;6.60;99.90
14283;DHT22;7225;59.282;18.344;2023-03-23T02:03:28;6.60;99.90
14283;DHT22;7225;59.282;18.344;2023-03-23T02:05:57;6.60;99.90
14283;DHT22;7225;59.282;18.344;2023-03-23T02:08:29;6.60;99.90
14283;DHT22;7225;59.282;18.344;2023-03-23T02:10:58;6.60;99.90
14283;DHT22;7225;59.282;18.344;2023-03-23T02:13:26;6.50;99.90
14283;DHT22;7225;59.282;18.344;2023-03-23T02:16:01;6.50;99.90
14283;DHT22;7225;59.282;18.344;2023-03-23T02:18:38;6.40;99.90
14283;DHT22;7225;59.282;18.344;2023-03-23T02:27:07;6.40;99.90
14283;DHT22;7225;59.282;18.344;2023-03-23T02:29:52;6.40;99.90
14283;DHT22;7225;59.282;18.344;2023-03-23T02:35:03;6.40;99.90
14283;DHT22;7225;59.282;18.344;2023-03-23T02:37:47;6.40;99.90
14283;DHT22;7225;59.282;18.344;2023-03-23T02:40:27;6.40;99.90
14283;DHT22;7225;59.282;18.344;2023-03-23T02:42:55;6.30;99.90
14283;DHT22;7225;59.282;18.344;2023-03-23T02:45:24;6.30;99.90
14283;DHT22;7225;59.282;18.344;2023-03-23T02:47:53;6.30;99.90
14283;DHT22;7225;59.282;18.344;2023-03-23T02:50:23;6.20;99.90
14283;DHT22;7225;59.282;18.344;2023-03-23T02:52:50;6.20;99.90
14283;DHT22;7225;59.282;18.344;2023-03-23T02:55:18;6.20;99.90
14283;DHT22;7225;59.282;18.344;2023-03-23T02:57:46;6.20;99.90
14283;DHT22;7225;59.282;18.344;2023-03-23T03:00:15;6.10;99.90
14283;DHT22;7225;59.282;18.344;2023-03-23T03:02:45;6.10;99.90
14283;DHT22;7225;59.282;18.344;2023-03-23T03:10:26;6.20;99.90
14283;DHT22;7225;59.282;18.344;2023-03-23T03:13:01;6.20;99.90
14283;DHT22;7225;59.282;18.344;2023-03-23T03:15:53;6.10;99.90
14283;DHT22;7225;59.282;18.344;2023-03-23T03:21:13;6.10;99.90
14283;DHT22;7225;59.282;18.344;2023-03-23T03:23:42;6.10;99.90
14283;DHT22;7225;59.282;18.344;2023-03-23T03:26:12;6.00;99.90
14283;DHT22;7225;59.282;18.344;2023-03-23T03:28:39;6.00;99.90
14283;DHT22;7225;59.282;18.344;2023-03-23T03:31:06;6.00;99.90
14283;DHT22;7225;59.282;18.344;2023-03-23T03:33:34;6.00;99.90
14283;DHT22;7225;59.282;18.344;2023-03-23T03:36:03;6.00;99.90
14283;DHT22;7225;59.282;18.344;2023-03-23T03:38:29;6.00;99.90
14283;DHT22;7225;59.282;18.344;2023-03-23T03:40:56;6.00;99.90
14283;DHT22;7225;59.282;18.344;2023-03-23T03:43:22;6.00;99.90
14283;DHT22;7225;59.282;18.344;2023-03-23T03:45:48;5.90;99.90
14283;DHT22;7225;59.282;18.344;2023-03-23T03:48:14;5.90;99.90
14283;DHT22;7225;59.282;18.344;2023-03-23T03:50:40;5.90;99.90
14283;DHT22;7225;59.282;18.344;2023-03-23T03:53:07;5.90;99.90
14283;DHT22;7225;59.282;18.344;2023-03-23T03:55:33;5.90;99.90
14283;DHT22;7225;59.282;18.344;2023-03-23T03:58:04;5.80;99.90
14283;DHT22;7225;59.282;18.344;2023-03-23T04:00:30;5.80;99.90
14283;DHT22;7225;59.282;18.344;2023-03-23T04:03:16;5.80;99.90
14283;DHT22;7225;59.282;18.344;2023-03-23T04:05:42;5.80;99.90
14283;DHT22;7225;59.282;18.344;2023-03-23T04:08:11;5.80;99.90
14283;DHT22;7225;59.282;18.344;2023-03-23T04:10:37;5.70;99.90
14283;DHT22;7225;59.282;18.344;2023-03-23T04:13:03;5.70;99.90
14283;DHT22;7225;59.282;18.344;2023-03-23T04:15:30;5.70;99.90
14283;DHT22;7225;59.282;18.344;2023-03-23T04:17:56;5.70;99.90
14283;DHT22;7225;59.282;18.344;2023-03-23T04:20:23;5.70;99.90
14283;DHT22;7225;59.282;18.344;2023-03-23T04:22:49;5.70;99.90
14283;DHT22;7225;59.282;18.344;2023-03-23T04:25:17;5.70;99.90
14283;DHT22;7225;59.282;18.344;2023-03-23T04:27:47;5.70;99.90
14283;DHT22;7225;59.282;18.344;2023-03-23T04:30:22;5.70;99.90
14283;DHT22;7225;59.282;18.344;2023-03-23T04:32:50;5.70;99.90
14283;DHT22;7225;59.282;18.344;2023-03-23T04:35:17;5.70;99.90
14283;DHT22;7225;59.282;18.344;2023-03-23T04:37:43;5.60;99.90
14283;DHT22;7225;59.282;18.344;2023-03-23T04:40:10;5.70;99.90
14283;DHT22;7225;59.282;18.344;2023-03-23T04:42:39;5.60;99.90
14283;DHT22;7225;59.282;18.344;2023-03-23T04:45:07;5.70;99.90
14283;DHT22;7225;59.282;18.344;2023-03-23T04:47:36;5.70;99.90
14283;DHT22;7225;59.282;18.344;2023-03-23T04:50:12;5.70;99.90
14283;DHT22;7225;59.282;18.344;2023-03-23T04:52:39;5.70;99.90
14283;DHT22;7225;59.282;18.344;2023-03-23T04:55:07;5.70;99.90
14283;DHT22;7225;59.282;18.344;2023-03-23T04:57:34;5.60;99.90
14283;DHT22;7225;59.282;18.344;2023-03-23T05:00:02;5.60;99.90
14283;DHT22;7225;59.282;18.344;2023-03-23T05:02:35;5.60;99.90
14283;DHT22;7225;59.282;18.344;2023-03-23T05:05:01;5.60;99.90
14283;DHT22;7225;59.282;18.344;2023-03-23T05:07:27;5.60;99.90
14283;DHT22;7225;59.282;18.344;2023-03-23T05:09:53;5.60;99.90
14283;DHT22;7225;59.282;18.344;2023-03-23T05:12:19;5.60;99.90
14283;DHT22;7225;59.282;18.344;2023-03-23T05:14:45;5.60;99.90
14283;DHT22;7225;59.282;18.344;2023-03-23T05:17:11;5.50;99.90
14283;DHT22;7225;59.282;18.344;2023-03-23T05:19:38;5.50;99.90
14283;DHT22;7225;59.282;18.344;2023-03-23T05:22:04;5.60;99.90
14283;DHT22;7225;59.282;18.344;2023-03-23T05:24:30;5.60;99.90
14283;DHT22;7225;59.282;18.344;2023-03-23T05:27:00;5.60;99.90
14283;DHT22;7225;59.282;18.344;2023-03-23T05:29:26;5.50;99.90
14283;DHT22;7225;59.282;18.344;2023-03-23T05:31:52;5.60;99.90
14283;DHT22;7225;59.282;18.344;2023-03-23T05:34:21;5.60;99.90
14283;DHT22;7225;59.282;18.344;2023-03-23T05:36:47;5.60;99.90
14283;DHT22;7225;59.282;18.344;2023-03-23T05:39:13;5.60;99.90
14283;DHT22;7225;59.282;18.344;2023-03-23T05:41:42;5.60;99.90
14283;DHT22;7225;59.282;18.344;2023-03-23T05:44:07;5.60;99.90
14283;DHT22;7225;59.282;18.344;2023-03-23T05:46:34;5.60;99.90
14283;DHT22;7225;59.282;18.344;2023-03-23T05:49:00;5.70;99.90
14283;DHT22;7225;59.282;18.344;2023-03-23T05:51:26;5.70;99.90
14283;DHT22;7225;59.282;18.344;2023-03-23T05:53:52;5.70;99.90
14283;DHT22;7225;59.282;18.344;2023-03-23T05:56:17;5.70;99.90
14283;DHT22;7225;59.282;18.344;2023-03-23T05:58:44;5.70;99.90
14283;DHT22;7225;59.282;18.344;2023-03-23T06:01:09;5.70;99.90
14283;DHT22;7225;59.282;18.344;2023-03-23T06:03:38;5.70;99.90
14283;DHT22;7225;59.282;18.344;2023-03-23T06:06:04;5.70;99.90
14283;DHT22;7225;59.282;18.344;2023-03-23T06:08:31;5.80;99.90
14283;DHT22;7225;59.282;18.344;2023-03-23T06:10:56;5.80;99.90
14283;DHT22;7225;59.282;18.344;2023-03-23T06:13:23;5.80;99.90
14283;DHT22;7225;59.282;18.344;2023-03-23T06:15:49;5.80;99.90
14283;DHT22;7225;59.282;18.344;2023-03-23T06:18:16;5.90;99.90
14283;DHT22;7225;59.282;18.344;2023-03-23T06:20:42;5.80;99.90
14283;DHT22;7225;59.282;18.344;2023-03-23T06:23:09;5.90;99.90
14283;DHT22;7225;59.282;18.344;2023-03-23T06:25:35;5.90;99.90
14283;DHT22;7225;59.282;18.344;2023-03-23T06:28:01;5.90;99.90
14283;DHT22;7225;59.282;18.344;2023-03-23T06:30:28;6.00;99.90
14283;DHT22;7225;59.282;18.344;2023-03-23T06:32:54;6.00;99.90
14283;DHT22;7225;59.282;18.344;2023-03-23T06:35:21;6.00;99.90
14283;DHT22;7225;59.282;18.344;2023-03-23T06:37:47;6.10;99.90
14283;DHT22;7225;59.282;18.344;2023-03-23T06:40:13;6.10;99.90
14283;DHT22;7225;59.282;18.344;2023-03-23T06:42:39;6.10;99.90
14283;DHT22;7225;59.282;18.344;2023-03-23T06:45:05;6.20;99.90
14283;DHT22;7225;59.282;18.344;2023-03-23T06:47:33;6.20;99.90
14283;DHT22;7225;59.282;18.344;2023-03-23T06:49:59;6.30;99.90
14283;DHT22;7225;59.282;18.344;2023-03-23T06:52:25;6.30;99.90
14283;DHT22;7225;59.282;18.344;2023-03-23T06:54:52;6.40;99.90
14283;DHT22;7225;59.282;18.344;2023-03-23T06:57:18;6.50;99.90
14283;DHT22;7225;59.282;18.344;2023-03-23T06:59:44;6.50;99.90
14283;DHT22;7225;59.282;18.344;2023-03-23T07:02:12;6.60;99.90
14283;DHT22;7225;59.282;18.344;2023-03-23T07:04:40;6.70;99.90
14283;DHT22;7225;59.282;18.344;2023-03-23T07:07:08;6.80;99.90
14283;DHT22;7225;59.282;18.344;2023-03-23T07:09:35;6.80;99.90
14283;DHT22;7225;59.282;18.344;2023-03-23T07:12:00;6.90;99.90
14283;DHT22;7225;59.282;18.344;2023-03-23T07:14:27;6.90;99.90
14283;DHT22;7225;59.282;18.344;2023-03-23T07:16:53;7.00;99.90
14283;DHT22;7225;59.282;18.344;2023-03-23T07:19:19;7.00;99.90
14283;DHT22;7225;59.282;18.344;2023-03-23T07:21:45;7.10;99.90
14283;DHT22;7225;59.282;18.344;2023-03-23T07:24:12;7.10;99.90
14283;DHT22;7225;59.282;18.344;2023-03-23T07:26:42;7.10;99.90
14283;DHT22;7225;59.282;18.344;2023-03-23T07:29:08;7.20;99.90
14283;DHT22;7225;59.282;18.344;2023-03-23T07:31:35;7.20;99.90
14283;DHT22;7225;59.282;18.344;2023-03-23T07:34:02;7.20;99.90
14283;DHT22;7225;59.282;18.344;2023-03-23T07:36:29;7.20;99.90
14283;DHT22;7225;59.282;18.344;2023-03-23T07:38:54;7.20;99.90
14283;DHT22;7225;59.282;18.344;2023-03-23T07:41:20;7.30;99.90
14283;DHT22;7225;59.282;18.344;2023-03-23T07:43:46;7.30;99.90
14283;DHT22;7225;59.282;18.344;2023-03-23T07:46:13;7.30;99.90
14283;DHT22;7225;59.282;18.344;2023-03-23T07:48:40;7.40;99.90
14283;DHT22;7225;59.282;18.344;2023-03-23T07:51:06;7.40;99.90
14283;DHT22;7225;59.282;18.344;2023-03-23T07:53:33;7.50;99.90
14283;DHT22;7225;59.282;18.344;2023-03-23T07:55:59;7.60;99.90
14283;DHT22;7225;59.282;18.344;2023-03-23T07:58:27;7.60;99.90
14283;DHT22;7225;59.282;18.344;2023-03-23T08:00:53;7.70;99.90
14283;DHT22;7225;59.282;18.344;2023-03-23T08:03:22;7.70;99.90
14283;DHT22;7225;59.282;18.344;2023-03-23T08:05:47;7.80;99.90
14283;DHT22;7225;59.282;18.344;2023-03-23T08:08:13;7.90;99.90
14283;DHT22;7225;59.282;18.344;2023-03-23T08:10:40;7.90;99.90
14283;DHT22;7225;59.282;18.344;2023-03-23T08:13:06;8.00;99.90
14283;DHT22;7225;59.282;18.344;2023-03-23T08:15:32;8.10;99.90
14283;DHT22;7225;59.282;18.344;2023-03-23T08:18:03;8.10;99.90
14283;DHT22;7225;59.282;18.344;2023-03-23T08:20:28;8.20;99.90
14283;DHT22;7225;59.282;18.344;2023-03-23T08:22:56;8.20;99.90
14283;DHT22;7225;59.282;18.344;2023-03-23T08:25:23;8.20;99.90
14283;DHT22;7225;59.282;18.344;2023-03-23T08:27:52;8.20;99.90
14283;DHT22;7225;59.282;18.344;2023-03-23T08:30:20;8.30;99.90
14283;DHT22;7225;59.282;18.344;2023-03-23T08:32:48;8.30;99.90
14283;DHT22;7225;59.282;18.344;2023-03-23T08:35:15;8.40;99.90
14283;DHT22;7225;59.282;18.344;2023-03-23T08:37:42;8.40;99.90
14283;DHT22;7225;59.282;18.344;2023-03-23T08:40:12;8.30;99.90
14283;DHT22;7225;59.282;18.344;2023-03-23T08:42:41;8.40;99.90
14283;DHT22;7225;59.282;18.344;2023-03-23T08:45:10;8.40;99.90
14283;DHT22;7225;59.282;18.344;2023-03-23T08:47:37;8.40;99.90
14283;DHT22;7225;59.282;18.344;2023-03-23T08:50:07;8.50;99.90
14283;DHT22;7225;59.282;18.344;2023-03-23T08:52:34;8.50;99.90
14283;DHT22;7225;59.282;18.344;2023-03-23T08:54:59;8.60;99.90
14283;DHT22;7225;59.282;18.344;2023-03-23T08:57:26;8.70;99.90
14283;DHT22;7225;59.282;18.344;2023-03-23T08:59:52;8.70;99.90
14283;DHT22;7225;59.282;18.344;2023-03-23T09:02:20;8.80;99.90
14283;DHT22;7225;59.282;18.344;2023-03-23T09:04:46;8.90;99.90
14283;DHT22;7225;59.282;18.344;2023-03-23T09:07:13;8.80;99.90
14283;DHT22;7225;59.282;18.344;2023-03-23T09:09:40;8.90;99.90
14283;DHT22;7225;59.282;18.344;2023-03-23T09:12:07;8.90;99.90
14283;DHT22;7225;59.282;18.344;2023-03-23T09:14:34;9.00;99.90
14283;DHT22;7225;59.282;18.344;2023-03-23T09:17:01;9.00;99.90
14283;DHT22;7225;59.282;18.344;2023-03-23T09:19:29;9.10;99.90
14283;DHT22;7225;59.282;18.344;2023-03-23T09:21:56;9.20;99.90
14283;DHT22;7225;59.282;18.344;2023-03-23T09:24:22;9.10;99.90
14283;DHT22;7225;59.282;18.344;2023-03-23T09:26:48;9.20;99.90
14283;DHT22;7225;59.282;18.344;2023-03-23T09:29:14;9.30;99.90
14283;DHT22;7225;59.282;18.344;2023-03-23T09:31:40;9.30;99.90
14283;DHT22;7225;59.282;18.344;2023-03-23T09:34:07;9.30;99.90
14283;DHT22;7225;59.282;18.344;2023-03-23T09:36:36;9.30;99.90
14283;DHT22;7225;59.282;18.344;2023-03-23T09:39:05;9.30;99.90
14283;DHT22;7225;59.282;18.344;2023-03-23T09:47:36;9.30;99.90
14283;DHT22;7225;59.282;18.344;2023-03-23T09:50:11;9.40;99.90
14283;DHT22;7225;59.282;18.344;2023-03-23T09:52:48;9.40;99.90
14283;DHT22;7225;59.282;18.344;2023-03-23T09:55:18;9.60;99.90
14283;DHT22;7225;59.282;18.344;2023-03-23T10:00:32;9.70;99.90
14283;DHT22;7225;59.282;18.344;2023-03-23T10:03:21;9.60;99.90
14283;DHT22;7225;59.282;18.344;2023-03-23T10:05:55;9.80;99.90
14283;DHT22;7225;59.282;18.344;2023-03-23T10:08:26;10.00;99.90
14283;DHT22;7225;59.282;18.344;2023-03-23T10:17:14;10.30;99.90
14283;DHT22;7225;59.282;18.344;2023-03-23T10:20:10;10.40;99.90
14283;DHT22;7225;59.282;18.344;2023-03-23T10:22:51;10.70;99.90
14283;DHT22;7225;59.282;18.344;2023-03-23T10:25:25;10.80;99.90
14283;DHT22;7225;59.282;18.344;2023-03-23T10:28:08;10.80;99.90
14283;DHT22;7225;59.282;18.344;2023-03-23T10:30:58;10.90;99.90
14283;DHT22;7225;59.282;18.344;2023-03-23T10:33:47;11.20;99.90
14283;DHT22;7225;59.282;18.344;2023-03-23T10:36:48;11.40;99.90
14283;DHT22;7225;59.282;18.344;2023-03-23T10:39:24;11.50;99.90
14283;DHT22;7225;59.282;18.344;2023-03-23T10:41:52;11.60;99.90
14283;DHT22;7225;59.282;18.344;2023-03-23T10:44:20;11.60;99.90
14283;DHT22;7225;59.282;18.344;2023-03-23T10:47:07;11.60;99.90
14283;DHT22;7225;59.282;18.344;2023-03-23T10:49:43;11.60;99.90
14283;DHT22;7225;59.282;18.344;2023-03-23T10:54:47;11.60;99.90
14283;DHT22;7225;59.282;18.344;2023-03-23T10:57:25;11.60;99.90
14283;DHT22;7225;59.282;18.344;2023-03-23T10:59:58;11.70;99.90
14283;DHT22;7225;59.282;18.344;2023-03-23T11:02:24;11.80;99.90
14283;DHT22;7225;59.282;18.344;2023-03-23T11:05:01;11.80;99.90
14283;DHT22;7225;59.282;18.344;2023-03-23T11:07:32;11.90;99.90
14283;DHT22;7225;59.282;18.344;2023-03-23T11:10:06;12.00;99.90
14283;DHT22;7225;59.282;18.344;2023-03-23T11:12:34;12.30;99.90
14283;DHT22;7225;59.282;18.344;2023-03-23T11:20:50;12.30;99.90
14283;DHT22;7225;59.282;18.344;2023-03-23T11:23:29;12.30;99.90
14283;DHT22;7225;59.282;18.344;2023-03-23T11:26:16;12.40;99.90
14283;DHT22;7225;59.282;18.344;2023-03-23T11:28:47;12.40;99.90
14283;DHT22;7225;59.282;18.344;2023-03-23T11:31:16;12.50;99.90
14283;DHT22;7225;59.282;18.344;2023-03-23T11:36:18;12.50;99.90
14283;DHT22;7225;59.282;18.344;2023-03-23T11:38:44;12.60;99.90
14283;DHT22;7225;59.282;18.344;2023-03-23T11:41:11;12.60;99.90
14283;DHT22;7225;59.282;18.344;2023-03-23T11:43:44;12.70;99.90
14283;DHT22;7225;59.282;18.344;2023-03-23T11:53:14;13.30;99.90
14283;DHT22;7225;59.282;18.344;2023-03-23T11:55:26;13.30;99.90
14283;DHT22;7225;59.282;18.344;2023-03-23T11:57:55;13.20;99.90
14283;DHT22;7225;59.282;18.344;2023-03-23T12:00:25;13.30;99.90
14283;DHT22;7225;59.282;18.344;2023-03-23T12:03:33;13.30;99.90
14283;DHT22;7225;59.282;18.344;2023-03-23T12:06:10;13.00;99.90
14283;DHT22;7225;59.282;18.344;2023-03-23T12:22:18;12.50;99.90
14283;DHT22;7225;59.282;18.344;2023-03-23T12:35:44;12.40;99.90
14283;DHT22;7225;59.282;18.344;2023-03-23T12:38:37;12.30;99.90
14283;DHT22;7225;59.282;18.344;2023-03-23T12:44:13;12.50;99.90
14283;DHT22;7225;59.282;18.344;2023-03-23T12:46:46;12.50;99.90
14283;DHT22;7225;59.282;18.344;2023-03-23T12:50:18;12.60;99.90
14283;DHT22;7225;59.282;18.344;2023-03-23T12:57:56;12.70;99.90
14283;DHT22;7225;59.282;18.344;2023-03-23T13:03:09;12.80;99.90
14283;DHT22;7225;59.282;18.344;2023-03-23T13:05:59;13.00;99.90
14283;DHT22;7225;59.282;18.344;2023-03-23T13:08:49;13.10;99.90
14283;DHT22;7225;59.282;18.344;2023-03-23T13:11:22;13.20;99.90
14283;DHT22;7225;59.282;18.344;2023-03-23T13:13:57;13.40;99.90
14283;DHT22;7225;59.282;18.344;2023-03-23T13:16:37;13.70;99.90
14283;DHT22;7225;59.282;18.344;2023-03-23T13:24:21;13.90;99.90
14283;DHT22;7225;59.282;18.344;2023-03-23T13:26:49;14.00;99.90
14283;DHT22;7225;59.282;18.344;2023-03-23T13:29:20;14.00;99.90
14283;DHT22;7225;59.282;18.344;2023-03-23T13:31:51;13.70;99.90
14283;DHT22;7225;59.282;18.344;2023-03-23T13:34:28;13.40;99.90
14283;DHT22;7225;59.282;18.344;2023-03-23T13:37:04;13.10;99.90
14283;DHT22;7225;59.282;18.344;2023-03-23T13:39:52;12.90;99.90
14283;DHT22;7225;59.282;18.344;2023-03-23T13:42:25;12.90;99.90
14283;DHT22;7225;59.282;18.344;2023-03-23T13:47:25;12.90;99.90
14283;DHT22;7225;59.282;18.344;2023-03-23T14:08:39;13.50;99.90
14283;DHT22;7225;59.282;18.344;2023-03-23T14:11:13;13.70;99.90
14283;DHT22;7225;59.282;18.344;2023-03-23T14:16:19;13.80;99.90
14283;DHT22;7225;59.282;18.344;2023-03-23T14:19:00;13.90;99.90
14283;DHT22;7225;59.282;18.344;2023-03-23T14:33:13;13.90;99.90
14283;DHT22;7225;59.282;18.344;2023-03-23T14:35:41;13.70;99.90
14283;DHT22;7225;59.282;18.344;2023-03-23T14:38:18;13.90;99.90
14283;DHT22;7225;59.282;18.344;2023-03-23T14:40:45;13.90;99.90
14283;DHT22;7225;59.282;18.344;2023-03-23T14:43:15;13.90;99.90
14283;DHT22;7225;59.282;18.344;2023-03-23T14:45:42;13.90;99.90
14283;DHT22;7225;59.282;18.344;2023-03-23T14:48:12;13.90;99.90
14283;DHT22;7225;59.282;18.344;2023-03-23T14:50:40;13.90;99.90
14283;DHT22;7225;59.282;18.344;2023-03-23T14:53:28;13.90;99.90
14283;DHT22;7225;59.282;18.344;2023-03-23T14:55:55;13.80;99.90
14283;DHT22;7225;59.282;18.344;2023-03-23T14:58:23;13.80;99.90
14283;DHT22;7225;59.282;18.344;2023-03-23T15:00:52;13.70;99.90
14283;DHT22;7225;59.282;18.344;2023-03-23T15:03:21;13.70;99.90
14283;DHT22;7225;59.282;18.344;2023-03-23T15:05:58;13.40;99.90
14283;DHT22;7225;59.282;18.344;2023-03-23T15:08:29;13.30;99.90
14283;DHT22;7225;59.282;18.344;2023-03-23T15:11:04;13.30;99.90
14283;DHT22;7225;59.282;18.344;2023-03-23T15:13:31;13.20;99.90
14283;DHT22;7225;59.282;18.344;2023-03-23T15:16:19;13.20;99.90
14283;DHT22;7225;59.282;18.344;2023-03-23T15:18:55;13.00;99.90
14283;DHT22;7225;59.282;18.344;2023-03-23T15:21:30;12.90;99.90
14283;DHT22;7225;59.282;18.344;2023-03-23T15:23:57;12.90;99.90
14283;DHT22;7225;59.282;18.344;2023-03-23T15:26:41;12.80;99.90
14283;DHT22;7225;59.282;18.344;2023-03-23T15:31:34;12.50;99.90
14283;DHT22;7225;59.282;18.344;2023-03-23T15:34:03;12.30;99.90
14283;DHT22;7225;59.282;18.344;2023-03-23T15:36:34;12.20;99.90
14283;DHT22;7225;59.282;18.344;2023-03-23T15:39:00;12.10;99.90
14283;DHT22;7225;59.282;18.344;2023-03-23T15:41:30;11.90;99.90
14283;DHT22;7225;59.282;18.344;2023-03-23T15:44:19;11.90;99.90
14283;DHT22;7225;59.282;18.344;2023-03-23T15:47:12;11.80;99.90
14283;DHT22;7225;59.282;18.344;2023-03-23T15:49:39;11.80;99.90
14283;DHT22;7225;59.282;18.344;2023-03-23T15:52:11;11.70;99.90
14283;DHT22;7225;59.282;18.344;2023-03-23T15:54:37;11.70;99.90
14283;DHT22;7225;59.282;18.344;2023-03-23T15:57:03;11.50;99.90
14283;DHT22;7225;59.282;18.344;2023-03-23T15:59:30;11.30;99.90
14283;DHT22;7225;59.282;18.344;2023-03-23T16:01:57;11.30;99.90
14283;DHT22;7225;59.282;18.344;2023-03-23T16:04:24;11.10;99.90
14283;DHT22;7225;59.282;18.344;2023-03-23T16:06:55;11.00;99.90
14283;DHT22;7225;59.282;18.344;2023-03-23T16:09:22;10.90;99.90
14283;DHT22;7225;59.282;18.344;2023-03-23T16:11:49;10.70;99.90
14283;DHT22;7225;59.282;18.344;2023-03-23T16:14:16;10.50;99.90
14283;DHT22;7225;59.282;18.344;2023-03-23T16:16:45;10.50;99.90
14283;DHT22;7225;59.282;18.344;2023-03-23T16:19:16;10.50;99.90
14283;DHT22;7225;59.282;18.344;2023-03-23T16:21:46;10.40;99.90
14283;DHT22;7225;59.282;18.344;2023-03-23T16:24:13;10.30;99.90
14283;DHT22;7225;59.282;18.344;2023-03-23T16:26:40;10.20;99.90
14283;DHT22;7225;59.282;18.344;2023-03-23T16:29:14;10.10;99.90
14283;DHT22;7225;59.282;18.344;2023-03-23T16:32:02;10.00;99.90
14283;DHT22;7225;59.282;18.344;2023-03-23T16:34:29;9.90;99.90
14283;DHT22;7225;59.282;18.344;2023-03-23T16:36:59;9.90;99.90
14283;DHT22;7225;59.282;18.344;2023-03-23T16:39:26;9.80;99.90
14283;DHT22;7225;59.282;18.344;2023-03-23T16:41:53;9.60;99.90
14283;DHT22;7225;59.282;18.344;2023-03-23T16:44:21;9.30;99.90
14283;DHT22;7225;59.282;18.344;2023-03-23T16:46:48;9.10;99.90
14283;DHT22;7225;59.282;18.344;2023-03-23T16:49:15;8.90;99.90
14283;DHT22;7225;59.282;18.344;2023-03-23T16:51:42;8.80;99.90
14283;DHT22;7225;59.282;18.344;2023-03-23T16:54:09;8.80;99.90
14283;DHT22;7225;59.282;18.344;2023-03-23T16:56:36;8.70;99.90
14283;DHT22;7225;59.282;18.344;2023-03-23T16:59:03;8.40;99.90
14283;DHT22;7225;59.282;18.344;2023-03-23T17:01:30;8.40;99.90
14283;DHT22;7225;59.282;18.344;2023-03-23T17:03:57;8.40;99.90
14283;DHT22;7225;59.282;18.344;2023-03-23T17:06:24;8.40;99.90
14283;DHT22;7225;59.282;18.344;2023-03-23T17:08:51;8.30;99.90
14283;DHT22;7225;59.282;18.344;2023-03-23T17:11:18;8.20;99.90
14283;DHT22;7225;59.282;18.344;2023-03-23T17:13:45;8.30;99.90
14283;DHT22;7225;59.282;18.344;2023-03-23T17:16:12;8.10;99.90
14283;DHT22;7225;59.282;18.344;2023-03-23T17:18:39;7.70;99.90
14283;DHT22;7225;59.282;18.344;2023-03-23T17:21:06;7.60;99.90
14283;DHT22;7225;59.282;18.344;2023-03-23T17:23:33;7.50;99.90
14283;DHT22;7225;59.282;18.344;2023-03-23T17:26:00;7.40;99.90
14283;DHT22;7225;59.282;18.344;2023-03-23T17:28:28;7.50;99.90
14283;DHT22;7225;59.282;18.344;2023-03-23T17:30:55;7.30;99.90
14283;DHT22;7225;59.282;18.344;2023-03-23T17:33:22;7.30;99.90
14283;DHT22;7225;59.282;18.344;2023-03-23T17:35:49;7.20;99.90
14283;DHT22;7225;59.282;18.344;2023-03-23T17:38:18;7.00;99.90
14283;DHT22;7225;59.282;18.344;2023-03-23T17:40:45;6.80;99.90
14283;DHT22;7225;59.282;18.344;2023-03-23T17:43:12;6.80;99.90
14283;DHT22;7225;59.282;18.344;2023-03-23T17:45:40;6.50;99.90
14283;DHT22;7225;59.282;18.344;2023-03-23T17:48:10;6.50;99.90
14283;DHT22;7225;59.282;18.344;2023-03-23T17:50:37;6.50;99.90
14283;DHT22;7225;59.282;18.344;2023-03-23T17:53:04;6.30;99.90
14283;DHT22;7225;59.282;18.344;2023-03-23T17:55:31;6.30;99.90
14283;DHT22;7225;59.282;18.344;2023-03-23T17:57:58;6.30;99.90
14283;DHT22;7225;59.282;18.344;2023-03-23T18:00:25;6.10;99.90
14283;DHT22;7225;59.282;18.344;2023-03-23T18:02:52;6.10;99.90
14283;DHT22;7225;59.282;18.344;2023-03-23T18:05:19;6.10;99.90
14283;DHT22;7225;59.282;18.344;2023-03-23T18:07:46;6.10;99.90